Montevallo, AL (35115)

8:29 AM CDT on August 29, 2015 (GMT -0500)
Country Hills | | Change Station
CLOSE
Current Station
Personal Weather Station
Location: Montevallo, AL
Elevation: 512 ft
Nearby Weather Stations

Elev 512 ft 33.16 °N, 86.82 °W | Updated 4 minutes ago

Partly Cloudy
Partly Cloudy
76.1 °F
Feels Like 76 °F
N
1.7
Wind Variable Wind from East

Today
High -- | Low -- °F
--% Chance of Precip.
Yesterday
High -- | Low -- °F
Precip. -- in
6:19 AM 7:16 PM
Full, 100% visible
Pressure 30.14 in
Visibility 8.0 miles
Clouds Few 700 ft
Heat Index 76 °F
Dew Point 74 °F
Humidity 94%
Rainfall 0.00 in
Snow Depth Not available.
UV 2 out of 12
Pollen 8.50 out of 12
Air Quality Not available.
Flu Activity Not available.
SPECI KEET 291312Z AUTO VRB05KT 8SM FEW007 23/22 A3014 RMK AO2 T02330217
Pressure 30.14 in
Visibility 8.0 miles
Clouds Few 700 ft
Heat Index 76 °F
Dew Point 74 °F
Humidity 94%
Rainfall 0.00 in
Snow Depth Not available.
UV 2 out of 12
Pollen 8.50 out of 12
Air Quality Not available.
Flu Activity Not available.
SPECI KEET 291312Z AUTO VRB05KT 8SM FEW007 23/22 A3014 RMK AO2 T02330217

10-Day Weather Forecast

×

Almanac

Astronomy

Aug. 29, 2015 Rise Set
Actual Time
Civil Twilight
Nautical Twilight
Astronomical Twilight
Moon
Length of Visible Light
Length of Day
Tomorrow will be .
, % of the Moon is Illuminated

Today's Extremes

State Highs State Lows

Community

WunderPhotos

Upload Photos

1,850,686 photos uploaded!

WunderBlogs® & News

Nearby

Air Quality

  Air Quality AQ Index Pollutant
Not available.

Snow Depth

Station Depth Elevation

Earthquake Activity

City Distance Mag. Time & Date
Minimum magnitude displayed is 2.5.

Coastal Water Temperatures

Place Temperature

Stations

Nearby Weather Stations

Station Location Temp. Windchill Dew Point Humidity Wind Precip. Elev Updated Type